sensor_id;sensor_type;location;lat;lon;timestamp;temperature;humidity
10451;DHT22;5273;51.290;6.918;2022-12-29T00:00:04;9.00;99.90
10451;DHT22;5273;51.290;6.918;2022-12-29T00:02:31;9.00;99.90
10451;DHT22;5273;51.290;6.918;2022-12-29T00:04:58;8.70;99.90
10451;DHT22;5273;51.290;6.918;2022-12-29T00:07:24;9.00;99.90
10451;DHT22;5273;51.290;6.918;2022-12-29T00:09:51;9.00;99.90
10451;DHT22;5273;51.290;6.918;2022-12-29T00:12:18;9.00;99.90
10451;DHT22;5273;51.290;6.918;2022-12-29T00:14:46;9.00;99.90
10451;DHT22;5273;51.290;6.918;2022-12-29T00:17:30;9.00;99.90
10451;DHT22;5273;51.290;6.918;2022-12-29T00:19:57;9.00;99.90
10451;DHT22;5273;51.290;6.918;2022-12-29T00:22:41;9.00;99.90
10451;DHT22;5273;51.290;6.918;2022-12-29T00:25:26;9.00;99.90
10451;DHT22;5273;51.290;6.918;2022-12-29T00:28:10;9.00;99.90
10451;DHT22;5273;51.290;6.918;2022-12-29T00:30:58;9.00;99.90
10451;DHT22;5273;51.290;6.918;2022-12-29T00:33:43;9.20;99.90
10451;DHT22;5273;51.290;6.918;2022-12-29T00:36:30;9.00;99.90
10451;DHT22;5273;51.290;6.918;2022-12-29T00:39:01;9.20;99.90
10451;DHT22;5273;51.290;6.918;2022-12-29T00:41:46;9.00;99.90
10451;DHT22;5273;51.290;6.918;2022-12-29T00:44:31;9.00;99.90
10451;DHT22;5273;51.290;6.918;2022-12-29T00:46:59;9.00;99.90
10451;DHT22;5273;51.290;6.918;2022-12-29T00:49:28;9.10;99.90
10451;DHT22;5273;51.290;6.918;2022-12-29T00:51:59;9.10;99.90
10451;DHT22;5273;51.290;6.918;2022-12-29T00:54:26;9.10;99.90
10451;DHT22;5273;51.290;6.918;2022-12-29T00:56:53;9.10;99.90
10451;DHT22;5273;51.290;6.918;2022-12-29T00:59:20;9.10;99.90
10451;DHT22;5273;51.290;6.918;2022-12-29T01:01:49;9.10;99.90
10451;DHT22;5273;51.290;6.918;2022-12-29T01:04:18;9.20;99.90
10451;DHT22;5273;51.290;6.918;2022-12-29T01:06:45;9.20;99.90
10451;DHT22;5273;51.290;6.918;2022-12-29T01:09:12;9.20;99.90
10451;DHT22;5273;51.290;6.918;2022-12-29T01:11:56;9.20;99.90
10451;DHT22;5273;51.290;6.918;2022-12-29T01:14:24;9.10;99.90
10451;DHT22;5273;51.290;6.918;2022-12-29T01:16:51;9.20;99.90
10451;DHT22;5273;51.290;6.918;2022-12-29T01:19:20;9.20;99.90
10451;DHT22;5273;51.290;6.918;2022-12-29T01:21:47;9.20;99.90
10451;DHT22;5273;51.290;6.918;2022-12-29T01:24:14;9.20;99.90
10451;DHT22;5273;51.290;6.918;2022-12-29T01:26:41;9.20;99.90
10451;DHT22;5273;51.290;6.918;2022-12-29T01:29:09;9.30;99.90
10451;DHT22;5273;51.290;6.918;2022-12-29T01:31:36;9.30;99.90
10451;DHT22;5273;51.290;6.918;2022-12-29T01:34:03;9.80;99.90
10451;DHT22;5273;51.290;6.918;2022-12-29T01:36:31;9.30;99.90
10451;DHT22;5273;51.290;6.918;2022-12-29T01:38:58;9.30;99.90
10451;DHT22;5273;51.290;6.918;2022-12-29T01:41:25;9.40;99.90
10451;DHT22;5273;51.290;6.918;2022-12-29T01:43:55;9.40;99.90
10451;DHT22;5273;51.290;6.918;2022-12-29T01:46:25;9.50;99.90
10451;DHT22;5273;51.290;6.918;2022-12-29T01:48:56;9.50;99.90
10451;DHT22;5273;51.290;6.918;2022-12-29T01:51:26;9.50;99.90
10451;DHT22;5273;51.290;6.918;2022-12-29T01:53:58;9.50;99.90
10451;DHT22;5273;51.290;6.918;2022-12-29T01:56:28;9.60;99.90
10451;DHT22;5273;51.290;6.918;2022-12-29T01:59:01;9.60;99.90
10451;DHT22;5273;51.290;6.918;2022-12-29T02:01:28;9.60;99.90
10451;DHT22;5273;51.290;6.918;2022-12-29T02:03:55;9.70;99.90
10451;DHT22;5273;51.290;6.918;2022-12-29T02:06:25;9.70;99.90
10451;DHT22;5273;51.290;6.918;2022-12-29T02:08:55;9.70;99.90
10451;DHT22;5273;51.290;6.918;2022-12-29T02:11:25;9.70;99.90
10451;DHT22;5273;51.290;6.918;2022-12-29T02:13:52;9.80;99.90
10451;DHT22;5273;51.290;6.918;2022-12-29T02:16:36;9.90;99.90
10451;DHT22;5273;51.290;6.918;2022-12-29T02:19:33;9.90;99.90
10451;DHT22;5273;51.290;6.918;2022-12-29T02:22:16;10.00;99.90
10451;DHT22;5273;51.290;6.918;2022-12-29T02:25:16;10.10;99.90
10451;DHT22;5273;51.290;6.918;2022-12-29T02:31:00;10.30;99.90
10451;DHT22;5273;51.290;6.918;2022-12-29T02:33:37;10.70;99.90
10451;DHT22;5273;51.290;6.918;2022-12-29T02:36:11;10.50;99.90
10451;DHT22;5273;51.290;6.918;2022-12-29T02:38:52;10.50;99.90
10451;DHT22;5273;51.290;6.918;2022-12-29T02:41:27;10.40;99.90
10451;DHT22;5273;51.290;6.918;2022-12-29T02:44:01;10.70;99.90
10451;DHT22;5273;51.290;6.918;2022-12-29T02:46:35;10.70;99.90
10451;DHT22;5273;51.290;6.918;2022-12-29T02:49:09;10.70;99.90
10451;DHT22;5273;51.290;6.918;2022-12-29T02:51:43;10.80;99.90
10451;DHT22;5273;51.290;6.918;2022-12-29T02:54:10;10.80;99.90
10451;DHT22;5273;51.290;6.918;2022-12-29T02:56:54;10.80;99.90
10451;DHT22;5273;51.290;6.918;2022-12-29T02:59:22;10.90;99.90
10451;DHT22;5273;51.290;6.918;2022-12-29T03:02:17;10.90;99.90
10451;DHT22;5273;51.290;6.918;2022-12-29T03:05:00;10.90;99.90
10451;DHT22;5273;51.290;6.918;2022-12-29T03:07:38;10.80;99.90
10451;DHT22;5273;51.290;6.918;2022-12-29T03:10:14;10.90;99.90
10451;DHT22;5273;51.290;6.918;2022-12-29T03:12:48;10.90;99.90
10451;DHT22;5273;51.290;6.918;2022-12-29T03:15:42;10.90;99.90
10451;DHT22;5273;51.290;6.918;2022-12-29T03:18:39;10.90;99.90
10451;DHT22;5273;51.290;6.918;2022-12-29T03:21:12;10.90;99.90
10451;DHT22;5273;51.290;6.918;2022-12-29T03:23:43;11.00;99.90
10451;DHT22;5273;51.290;6.918;2022-12-29T03:26:14;11.00;99.90
10451;DHT22;5273;51.290;6.918;2022-12-29T03:28:46;11.70;99.90
10451;DHT22;5273;51.290;6.918;2022-12-29T03:31:14;11.00;99.90
10451;DHT22;5273;51.290;6.918;2022-12-29T03:33:43;11.00;99.90
10451;DHT22;5273;51.290;6.918;2022-12-29T03:36:22;11.00;99.90
10451;DHT22;5273;51.290;6.918;2022-12-29T03:38:53;11.00;99.90
10451;DHT22;5273;51.290;6.918;2022-12-29T03:41:28;11.00;99.90
10451;DHT22;5273;51.290;6.918;2022-12-29T03:43:56;11.10;99.90
10451;DHT22;5273;51.290;6.918;2022-12-29T03:46:23;11.10;99.90
10451;DHT22;5273;51.290;6.918;2022-12-29T03:48:51;11.10;99.90
10451;DHT22;5273;51.290;6.918;2022-12-29T03:51:18;11.10;99.90
10451;DHT22;5273;51.290;6.918;2022-12-29T03:53:44;11.10;99.90
10451;DHT22;5273;51.290;6.918;2022-12-29T03:56:11;11.10;99.90
10451;DHT22;5273;51.290;6.918;2022-12-29T03:58:38;11.10;99.90
10451;DHT22;5273;51.290;6.918;2022-12-29T04:01:05;11.10;99.90
10451;DHT22;5273;51.290;6.918;2022-12-29T04:03:31;11.00;99.90
10451;DHT22;5273;51.290;6.918;2022-12-29T04:05:59;11.20;99.90
10451;DHT22;5273;51.290;6.918;2022-12-29T04:08:26;11.20;99.90
10451;DHT22;5273;51.290;6.918;2022-12-29T04:10:53;11.20;99.90
10451;DHT22;5273;51.290;6.918;2022-12-29T04:13:20;11.20;99.90
10451;DHT22;5273;51.290;6.918;2022-12-29T04:15:46;11.10;99.90
10451;DHT22;5273;51.290;6.918;2022-12-29T04:18:13;11.10;99.90
10451;DHT22;5273;51.290;6.918;2022-12-29T04:20:41;11.20;99.90
10451;DHT22;5273;51.290;6.918;2022-12-29T04:23:28;11.20;99.90
10451;DHT22;5273;51.290;6.918;2022-12-29T04:25:54;11.10;99.90
10451;DHT22;5273;51.290;6.918;2022-12-29T04:28:21;11.10;99.90
10451;DHT22;5273;51.290;6.918;2022-12-29T04:30:48;11.00;99.90
10451;DHT22;5273;51.290;6.918;2022-12-29T04:33:15;11.00;99.90
10451;DHT22;5273;51.290;6.918;2022-12-29T04:35:42;11.10;99.90
10451;DHT22;5273;51.290;6.918;2022-12-29T04:38:10;11.10;99.90
10451;DHT22;5273;51.290;6.918;2022-12-29T04:40:40;11.60;99.90
10451;DHT22;5273;51.290;6.918;2022-12-29T04:43:07;11.10;99.90
10451;DHT22;5273;51.290;6.918;2022-12-29T04:45:35;11.10;99.90
10451;DHT22;5273;51.290;6.918;2022-12-29T04:48:02;11.10;99.90
10451;DHT22;5273;51.290;6.918;2022-12-29T04:50:28;10.90;99.90
10451;DHT22;5273;51.290;6.918;2022-12-29T04:52:55;11.20;99.90
10451;DHT22;5273;51.290;6.918;2022-12-29T04:55:22;11.30;99.90
10451;DHT22;5273;51.290;6.918;2022-12-29T04:57:50;11.30;99.90
10451;DHT22;5273;51.290;6.918;2022-12-29T05:00:17;11.30;99.90
10451;DHT22;5273;51.290;6.918;2022-12-29T05:02:44;11.30;99.90
10451;DHT22;5273;51.290;6.918;2022-12-29T05:05:11;11.40;99.90
10451;DHT22;5273;51.290;6.918;2022-12-29T05:07:38;11.50;99.90
10451;DHT22;5273;51.290;6.918;2022-12-29T05:10:07;11.50;99.90
10451;DHT22;5273;51.290;6.918;2022-12-29T05:12:35;11.50;99.90
10451;DHT22;5273;51.290;6.918;2022-12-29T05:15:05;11.50;99.90
10451;DHT22;5273;51.290;6.918;2022-12-29T05:17:33;11.50;99.90
10451;DHT22;5273;51.290;6.918;2022-12-29T05:19:59;11.50;99.90
10451;DHT22;5273;51.290;6.918;2022-12-29T05:22:26;11.50;99.90
10451;DHT22;5273;51.290;6.918;2022-12-29T05:24:53;11.50;99.90
10451;DHT22;5273;51.290;6.918;2022-12-29T05:27:20;11.50;99.90
10451;DHT22;5273;51.290;6.918;2022-12-29T05:29:46;11.50;99.90
10451;DHT22;5273;51.290;6.918;2022-12-29T05:32:15;11.50;99.90
10451;DHT22;5273;51.290;6.918;2022-12-29T05:34:41;11.50;99.90
10451;DHT22;5273;51.290;6.918;2022-12-29T05:37:08;11.50;99.90
10451;DHT22;5273;51.290;6.918;2022-12-29T05:39:35;11.50;99.90
10451;DHT22;5273;51.290;6.918;2022-12-29T05:42:02;11.50;99.90
10451;DHT22;5273;51.290;6.918;2022-12-29T05:44:28;11.50;99.90
10451;DHT22;5273;51.290;6.918;2022-12-29T05:46:55;11.50;99.90
10451;DHT22;5273;51.290;6.918;2022-12-29T05:49:23;11.40;99.90
10451;DHT22;5273;51.290;6.918;2022-12-29T05:51:50;11.30;99.90
10451;DHT22;5273;51.290;6.918;2022-12-29T05:54:17;11.40;99.90
10451;DHT22;5273;51.290;6.918;2022-12-29T05:56:43;10.20;99.90
10451;DHT22;5273;51.290;6.918;2022-12-29T05:59:10;11.40;99.90
10451;DHT22;5273;51.290;6.918;2022-12-29T06:01:37;11.40;99.90
10451;DHT22;5273;51.290;6.918;2022-12-29T06:04:04;11.40;99.90
10451;DHT22;5273;51.290;6.918;2022-12-29T06:06:32;11.30;99.90
10451;DHT22;5273;51.290;6.918;2022-12-29T06:08:59;11.40;99.90
10451;DHT22;5273;51.290;6.918;2022-12-29T06:11:25;11.40;99.90
10451;DHT22;5273;51.290;6.918;2022-12-29T06:13:52;11.40;99.90
10451;DHT22;5273;51.290;6.918;2022-12-29T06:16:19;11.40;99.90
10451;DHT22;5273;51.290;6.918;2022-12-29T06:18:46;11.40;99.90
10451;DHT22;5273;51.290;6.918;2022-12-29T06:21:13;11.40;99.90
10451;DHT22;5273;51.290;6.918;2022-12-29T06:23:41;10.80;99.90
10451;DHT22;5273;51.290;6.918;2022-12-29T06:26:07;11.30;99.90
10451;DHT22;5273;51.290;6.918;2022-12-29T06:28:34;11.40;99.90
10451;DHT22;5273;51.290;6.918;2022-12-29T06:31:01;11.30;99.90
10451;DHT22;5273;51.290;6.918;2022-12-29T06:33:28;11.30;99.90
10451;DHT22;5273;51.290;6.918;2022-12-29T06:35:55;11.00;99.90
10451;DHT22;5273;51.290;6.918;2022-12-29T06:38:22;11.30;99.90
10451;DHT22;5273;51.290;6.918;2022-12-29T06:40:50;11.20;99.90
10451;DHT22;5273;51.290;6.918;2022-12-29T06:43:16;11.30;99.90
10451;DHT22;5273;51.290;6.918;2022-12-29T06:45:43;11.20;99.90
10451;DHT22;5273;51.290;6.918;2022-12-29T06:48:10;11.20;99.90
10451;DHT22;5273;51.290;6.918;2022-12-29T06:50:37;11.20;99.90
10451;DHT22;5273;51.290;6.918;2022-12-29T06:53:04;11.20;99.90
10451;DHT22;5273;51.290;6.918;2022-12-29T06:55:31;11.20;99.90
10451;DHT22;5273;51.290;6.918;2022-12-29T06:57:59;11.20;99.90
10451;DHT22;5273;51.290;6.918;2022-12-29T07:00:26;11.20;99.90
10451;DHT22;5273;51.290;6.918;2022-12-29T07:02:54;11.20;99.90
10451;DHT22;5273;51.290;6.918;2022-12-29T07:05:21;11.10;99.90
10451;DHT22;5273;51.290;6.918;2022-12-29T07:07:48;11.10;99.90
10451;DHT22;5273;51.290;6.918;2022-12-29T07:10:15;11.10;99.90
10451;DHT22;5273;51.290;6.918;2022-12-29T07:12:41;11.00;99.90
10451;DHT22;5273;51.290;6.918;2022-12-29T07:15:10;11.10;99.90
10451;DHT22;5273;51.290;6.918;2022-12-29T07:17:37;11.10;99.90
10451;DHT22;5273;51.290;6.918;2022-12-29T07:20:05;11.20;99.90
10451;DHT22;5273;51.290;6.918;2022-12-29T07:22:32;11.10;99.90
10451;DHT22;5273;51.290;6.918;2022-12-29T07:24:59;9.90;99.90
10451;DHT22;5273;51.290;6.918;2022-12-29T07:27:26;11.10;99.90
10451;DHT22;5273;51.290;6.918;2022-12-29T07:29:52;11.10;99.90
10451;DHT22;5273;51.290;6.918;2022-12-29T07:32:21;11.10;99.90
10451;DHT22;5273;51.290;6.918;2022-12-29T07:34:47;11.00;99.90
10451;DHT22;5273;51.290;6.918;2022-12-29T07:37:14;11.00;99.90
10451;DHT22;5273;51.290;6.918;2022-12-29T07:39:41;11.00;99.90
10451;DHT22;5273;51.290;6.918;2022-12-29T07:42:08;11.00;99.90
10451;DHT22;5273;51.290;6.918;2022-12-29T07:44:35;11.00;99.90
10451;DHT22;5273;51.290;6.918;2022-12-29T07:47:02;11.60;99.90
10451;DHT22;5273;51.290;6.918;2022-12-29T07:49:30;11.00;99.90
10451;DHT22;5273;51.290;6.918;2022-12-29T07:51:57;11.00;99.90
10451;DHT22;5273;51.290;6.918;2022-12-29T07:54:24;11.00;99.90
10451;DHT22;5273;51.290;6.918;2022-12-29T07:56:51;11.00;99.90
10451;DHT22;5273;51.290;6.918;2022-12-29T07:59:18;11.00;99.90
10451;DHT22;5273;51.290;6.918;2022-12-29T08:01:45;11.00;99.90
10451;DHT22;5273;51.290;6.918;2022-12-29T08:04:11;11.00;99.90
10451;DHT22;5273;51.290;6.918;2022-12-29T08:06:40;11.00;99.90
10451;DHT22;5273;51.290;6.918;2022-12-29T08:09:07;11.00;99.90
10451;DHT22;5273;51.290;6.918;2022-12-29T08:11:34;11.00;99.90
10451;DHT22;5273;51.290;6.918;2022-12-29T08:14:02;11.00;99.90
10451;DHT22;5273;51.290;6.918;2022-12-29T08:16:29;11.00;99.90
10451;DHT22;5273;51.290;6.918;2022-12-29T08:18:56;11.00;99.90
10451;DHT22;5273;51.290;6.918;2022-12-29T08:21:24;11.00;99.90
10451;DHT22;5273;51.290;6.918;2022-12-29T08:23:52;11.00;99.90
10451;DHT22;5273;51.290;6.918;2022-12-29T08:26:19;11.80;99.90
10451;DHT22;5273;51.290;6.918;2022-12-29T08:28:46;11.00;99.90
10451;DHT22;5273;51.290;6.918;2022-12-29T08:31:12;11.90;99.90
10451;DHT22;5273;51.290;6.918;2022-12-29T08:33:39;11.00;99.90
10451;DHT22;5273;51.290;6.918;2022-12-29T08:36:07;11.00;99.90
10451;DHT22;5273;51.290;6.918;2022-12-29T08:38:34;11.00;99.90
10451;DHT22;5273;51.290;6.918;2022-12-29T08:41:02;11.00;99.90
10451;DHT22;5273;51.290;6.918;2022-12-29T08:43:29;11.00;99.90
10451;DHT22;5273;51.290;6.918;2022-12-29T08:45:57;11.00;99.90
10451;DHT22;5273;51.290;6.918;2022-12-29T08:48:24;10.90;99.90
10451;DHT22;5273;51.290;6.918;2022-12-29T08:50:51;10.80;99.90
10451;DHT22;5273;51.290;6.918;2022-12-29T08:53:18;10.70;99.90
10451;DHT22;5273;51.290;6.918;2022-12-29T08:55:45;10.60;99.90
10451;DHT22;5273;51.290;6.918;2022-12-29T08:58:14;10.50;99.90
10451;DHT22;5273;51.290;6.918;2022-12-29T09:00:42;10.50;99.90
10451;DHT22;5273;51.290;6.918;2022-12-29T09:03:09;10.50;99.90
10451;DHT22;5273;51.290;6.918;2022-12-29T09:05:36;10.60;99.90
10451;DHT22;5273;51.290;6.918;2022-12-29T09:08:03;10.70;99.90
10451;DHT22;5273;51.290;6.918;2022-12-29T09:10:29;10.70;99.90
10451;DHT22;5273;51.290;6.918;2022-12-29T09:12:56;10.80;99.90
10451;DHT22;5273;51.290;6.918;2022-12-29T09:15:24;10.80;99.90
10451;DHT22;5273;51.290;6.918;2022-12-29T09:17:51;11.60;99.90
10451;DHT22;5273;51.290;6.918;2022-12-29T09:20:19;11.90;99.90
10451;DHT22;5273;51.290;6.918;2022-12-29T09:22:46;11.80;99.90
10451;DHT22;5273;51.290;6.918;2022-12-29T09:25:14;11.70;99.90
10451;DHT22;5273;51.290;6.918;2022-12-29T09:27:41;11.70;99.90
10451;DHT22;5273;51.290;6.918;2022-12-29T09:30:10;11.60;99.90
10451;DHT22;5273;51.290;6.918;2022-12-29T09:32:39;11.60;99.90
10451;DHT22;5273;51.290;6.918;2022-12-29T09:35:06;11.50;99.90
10451;DHT22;5273;51.290;6.918;2022-12-29T09:37:33;11.40;99.90
10451;DHT22;5273;51.290;6.918;2022-12-29T09:39:59;11.30;99.90
10451;DHT22;5273;51.290;6.918;2022-12-29T09:42:29;11.40;99.90
10451;DHT22;5273;51.290;6.918;2022-12-29T09:45:07;11.30;99.90
10451;DHT22;5273;51.290;6.918;2022-12-29T09:47:37;11.30;99.90
10451;DHT22;5273;51.290;6.918;2022-12-29T09:50:20;11.20;99.90
10451;DHT22;5273;51.290;6.918;2022-12-29T09:52:52;11.20;99.90
10451;DHT22;5273;51.290;6.918;2022-12-29T09:55:25;11.20;99.90
10451;DHT22;5273;51.290;6.918;2022-12-29T09:57:55;11.20;99.90
10451;DHT22;5273;51.290;6.918;2022-12-29T10:00:36;11.80;99.90
10451;DHT22;5273;51.290;6.918;2022-12-29T10:03:09;11.20;99.90
10451;DHT22;5273;51.290;6.918;2022-12-29T10:05:48;11.20;99.90
10451;DHT22;5273;51.290;6.918;2022-12-29T10:08:25;11.30;99.90
10451;DHT22;5273;51.290;6.918;2022-12-29T10:10:58;11.30;99.90
10451;DHT22;5273;51.290;6.918;2022-12-29T10:13:33;11.40;99.90
10451;DHT22;5273;51.290;6.918;2022-12-29T10:16:06;11.40;99.90
10451;DHT22;5273;51.290;6.918;2022-12-29T10:18:57;11.50;99.90
10451;DHT22;5273;51.290;6.918;2022-12-29T10:21:37;11.50;98.70
10451;DHT22;5273;51.290;6.918;2022-12-29T10:24:11;11.50;98.60
10451;DHT22;5273;51.290;6.918;2022-12-29T10:26:40;11.50;98.60
10451;DHT22;5273;51.290;6.918;2022-12-29T10:29:14;11.50;98.90
10451;DHT22;5273;51.290;6.918;2022-12-29T10:31:44;11.50;98.10
10451;DHT22;5273;51.290;6.918;2022-12-29T10:34:18;11.50;98.20
10451;DHT22;5273;51.290;6.918;2022-12-29T10:36:48;11.40;97.90
10451;DHT22;5273;51.290;6.918;2022-12-29T10:39:20;11.40;98.70
10451;DHT22;5273;51.290;6.918;2022-12-29T10:41:50;11.50;98.40
10451;DHT22;5273;51.290;6.918;2022-12-29T10:44:18;11.60;98.40
10451;DHT22;5273;51.290;6.918;2022-12-29T10:46:55;11.60;98.50
10451;DHT22;5273;51.290;6.918;2022-12-29T10:49:25;11.70;98.40
10451;DHT22;5273;51.290;6.918;2022-12-29T10:51:57;11.70;98.40
10451;DHT22;5273;51.290;6.918;2022-12-29T10:54:27;11.70;98.00
10451;DHT22;5273;51.290;6.918;2022-12-29T10:57:00;11.60;98.00
10451;DHT22;5273;51.290;6.918;2022-12-29T10:59:30;11.60;98.20
10451;DHT22;5273;51.290;6.918;2022-12-29T11:02:05;11.60;98.00
10451;DHT22;5273;51.290;6.918;2022-12-29T11:04:46;11.60;98.10
10451;DHT22;5273;51.290;6.918;2022-12-29T11:07:19;11.50;98.10
10451;DHT22;5273;51.290;6.918;2022-12-29T11:09:47;11.50;98.00
10451;DHT22;5273;51.290;6.918;2022-12-29T11:12:23;11.50;98.30
10451;DHT22;5273;51.290;6.918;2022-12-29T11:15:10;12.90;99.30
10451;DHT22;5273;51.290;6.918;2022-12-29T11:17:43;11.40;98.40
10451;DHT22;5273;51.290;6.918;2022-12-29T11:20:30;11.40;98.30
10451;DHT22;5273;51.290;6.918;2022-12-29T11:22:59;12.40;99.00
10451;DHT22;5273;51.290;6.918;2022-12-29T11:25:27;11.40;98.70
10451;DHT22;5273;51.290;6.918;2022-12-29T11:27:59;11.40;98.40
10451;DHT22;5273;51.290;6.918;2022-12-29T11:30:28;11.30;98.60
10451;DHT22;5273;51.290;6.918;2022-12-29T11:32:56;11.30;98.40
10451;DHT22;5273;51.290;6.918;2022-12-29T11:35:32;11.30;98.30
10451;DHT22;5273;51.290;6.918;2022-12-29T11:38:02;11.30;98.30
10451;DHT22;5273;51.290;6.918;2022-12-29T11:40:29;11.30;98.50
10451;DHT22;5273;51.290;6.918;2022-12-29T11:42:59;11.30;98.30
10451;DHT22;5273;51.290;6.918;2022-12-29T11:45:30;11.30;98.50
10451;DHT22;5273;51.290;6.918;2022-12-29T11:48:00;11.30;98.30
10451;DHT22;5273;51.290;6.918;2022-12-29T11:50:30;11.30;98.10
10451;DHT22;5273;51.290;6.918;2022-12-29T11:52:59;11.30;98.20
10451;DHT22;5273;51.290;6.918;2022-12-29T11:55:29;11.30;98.20
10451;DHT22;5273;51.290;6.918;2022-12-29T11:57:59;11.30;98.10
10451;DHT22;5273;51.290;6.918;2022-12-29T12:00:30;11.30;98.20
10451;DHT22;5273;51.290;6.918;2022-12-29T12:02:59;11.30;97.80
10451;DHT22;5273;51.290;6.918;2022-12-29T12:05:34;11.30;97.90
10451;DHT22;5273;51.290;6.918;2022-12-29T12:08:08;11.40;98.00
10451;DHT22;5273;51.290;6.918;2022-12-29T12:10:42;11.30;97.90
10451;DHT22;5273;51.290;6.918;2022-12-29T12:13:19;11.30;97.50
10451;DHT22;5273;51.290;6.918;2022-12-29T12:15:51;11.50;97.90
10451;DHT22;5273;51.290;6.918;2022-12-29T12:18:28;11.30;98.00
10451;DHT22;5273;51.290;6.918;2022-12-29T12:20:58;11.30;97.90
10451;DHT22;5273;51.290;6.918;2022-12-29T12:23:38;11.30;98.50
10451;DHT22;5273;51.290;6.918;2022-12-29T12:26:12;11.20;97.80
10451;DHT22;5273;51.290;6.918;2022-12-29T12:28:47;11.20;98.00
10451;DHT22;5273;51.290;6.918;2022-12-29T12:31:21;11.20;98.00
10451;DHT22;5273;51.290;6.918;2022-12-29T12:33:57;11.10;98.20
10451;DHT22;5273;51.290;6.918;2022-12-29T12:39:45;11.10;98.40
10451;DHT22;5273;51.290;6.918;2022-12-29T12:42:24;11.10;98.20
10451;DHT22;5273;51.290;6.918;2022-12-29T12:45:03;11.10;98.50
10451;DHT22;5273;51.290;6.918;2022-12-29T12:47:42;11.10;98.10
10451;DHT22;5273;51.290;6.918;2022-12-29T12:50:32;11.00;98.40
10451;DHT22;5273;51.290;6.918;2022-12-29T12:53:26;11.10;98.80
10451;DHT22;5273;51.290;6.918;2022-12-29T12:56:08;11.00;98.50
10451;DHT22;5273;51.290;6.918;2022-12-29T12:58:45;10.90;98.10
10451;DHT22;5273;51.290;6.918;2022-12-29T13:01:22;10.90;98.20
10451;DHT22;5273;51.290;6.918;2022-12-29T13:04:08;11.00;98.40
10451;DHT22;5273;51.290;6.918;2022-12-29T13:06:43;11.00;98.50
10451;DHT22;5273;51.290;6.918;2022-12-29T13:09:30;11.00;98.20
10451;DHT22;5273;51.290;6.918;2022-12-29T13:12:09;11.00;98.30
10451;DHT22;5273;51.290;6.918;2022-12-29T13:14:46;11.00;98.10
10451;DHT22;5273;51.290;6.918;2022-12-29T13:17:24;11.00;98.20
10451;DHT22;5273;51.290;6.918;2022-12-29T13:19:59;11.00;98.30
10451;DHT22;5273;51.290;6.918;2022-12-29T13:22:34;11.00;98.40
10451;DHT22;5273;51.290;6.918;2022-12-29T13:25:20;11.00;98.50
10451;DHT22;5273;51.290;6.918;2022-12-29T13:27:54;10.90;99.00
10451;DHT22;5273;51.290;6.918;2022-12-29T13:30:31;10.90;99.10
10451;DHT22;5273;51.290;6.918;2022-12-29T13:33:07;10.90;99.20
10451;DHT22;5273;51.290;6.918;2022-12-29T13:35:59;10.90;99.20
10451;DHT22;5273;51.290;6.918;2022-12-29T13:38:32;10.90;99.20
10451;DHT22;5273;51.290;6.918;2022-12-29T13:41:02;10.90;99.30
10451;DHT22;5273;51.290;6.918;2022-12-29T13:43:31;10.80;99.90
10451;DHT22;5273;51.290;6.918;2022-12-29T13:46:03;10.90;99.90
10451;DHT22;5273;51.290;6.918;2022-12-29T13:48:37;10.90;99.90
10451;DHT22;5273;51.290;6.918;2022-12-29T13:51:08;10.90;99.90
10451;DHT22;5273;51.290;6.918;2022-12-29T13:53:49;10.90;99.90
10451;DHT22;5273;51.290;6.918;2022-12-29T13:56:22;10.90;99.60
10451;DHT22;5273;51.290;6.918;2022-12-29T13:58:54;10.90;99.10
10451;DHT22;5273;51.290;6.918;2022-12-29T14:01:28;10.90;99.50
10451;DHT22;5273;51.290;6.918;2022-12-29T14:03:58;10.90;99.20
10451;DHT22;5273;51.290;6.918;2022-12-29T14:06:27;10.90;99.00
10451;DHT22;5273;51.290;6.918;2022-12-29T14:08:56;11.00;98.50
10451;DHT22;5273;51.290;6.918;2022-12-29T14:11:30;10.90;98.60
10451;DHT22;5273;51.290;6.918;2022-12-29T14:13:57;10.90;98.30
10451;DHT22;5273;51.290;6.918;2022-12-29T14:16:29;10.90;98.30
10451;DHT22;5273;51.290;6.918;2022-12-29T14:19:04;10.90;98.20
10451;DHT22;5273;51.290;6.918;2022-12-29T14:21:32;10.80;98.20
10451;DHT22;5273;51.290;6.918;2022-12-29T14:24:26;10.90;98.10
10451;DHT22;5273;51.290;6.918;2022-12-29T14:26:53;10.80;98.40
10451;DHT22;5273;51.290;6.918;2022-12-29T14:29:43;10.90;98.10
10451;DHT22;5273;51.290;6.918;2022-12-29T14:32:37;10.80;98.30
10451;DHT22;5273;51.290;6.918;2022-12-29T14:35:38;10.80;98.10
10451;DHT22;5273;51.290;6.918;2022-12-29T14:38:12;10.80;98.30
10451;DHT22;5273;51.290;6.918;2022-12-29T14:40:40;10.70;98.50
10451;DHT22;5273;51.290;6.918;2022-12-29T14:43:12;10.70;98.30
10451;DHT22;5273;51.290;6.918;2022-12-29T14:45:42;10.70;98.40
10451;DHT22;5273;51.290;6.918;2022-12-29T14:48:38;10.70;98.30
10451;DHT22;5273;51.290;6.918;2022-12-29T14:51:29;10.70;98.50
10451;DHT22;5273;51.290;6.918;2022-12-29T14:53:57;10.70;98.40
10451;DHT22;5273;51.290;6.918;2022-12-29T14:56:28;10.70;98.50
10451;DHT22;5273;51.290;6.918;2022-12-29T14:58:57;10.70;98.70
10451;DHT22;5273;51.290;6.918;2022-12-29T15:01:34;10.60;98.30
10451;DHT22;5273;51.290;6.918;2022-12-29T15:04:13;10.60;98.40
10451;DHT22;5273;51.290;6.918;2022-12-29T15:06:42;10.50;98.40
10451;DHT22;5273;51.290;6.918;2022-12-29T15:09:17;10.60;98.40
10451;DHT22;5273;51.290;6.918;2022-12-29T15:11:49;10.60;98.50
10451;DHT22;5273;51.290;6.918;2022-12-29T15:14:35;10.50;98.40
10451;DHT22;5273;51.290;6.918;2022-12-29T15:17:10;10.50;98.70
10451;DHT22;5273;51.290;6.918;2022-12-29T15:19:38;10.50;98.80
10451;DHT22;5273;51.290;6.918;2022-12-29T15:22:05;10.50;98.70
10451;DHT22;5273;51.290;6.918;2022-12-29T15:24:33;10.50;98.70
10451;DHT22;5273;51.290;6.918;2022-12-29T15:27:03;9.70;98.60
10451;DHT22;5273;51.290;6.918;2022-12-29T15:29:34;10.40;98.40
10451;DHT22;5273;51.290;6.918;2022-12-29T15:32:16;10.40;98.40
10451;DHT22;5273;51.290;6.918;2022-12-29T15:34:45;10.40;98.50
10451;DHT22;5273;51.290;6.918;2022-12-29T15:37:18;10.40;98.50
10451;DHT22;5273;51.290;6.918;2022-12-29T15:39:45;11.40;99.00
10451;DHT22;5273;51.290;6.918;2022-12-29T15:42:27;10.40;98.60
10451;DHT22;5273;51.290;6.918;2022-12-29T15:44:56;10.30;98.70
10451;DHT22;5273;51.290;6.918;2022-12-29T15:47:25;10.30;98.70
10451;DHT22;5273;51.290;6.918;2022-12-29T15:50:02;10.30;98.80
10451;DHT22;5273;51.290;6.918;2022-12-29T15:52:30;10.30;98.80
10451;DHT22;5273;51.290;6.918;2022-12-29T15:54:58;10.30;98.90
10451;DHT22;5273;51.290;6.918;2022-12-29T15:57:27;10.20;98.90
10451;DHT22;5273;51.290;6.918;2022-12-29T15:59:55;10.20;98.80
10451;DHT22;5273;51.290;6.918;2022-12-29T16:02:22;10.20;98.90
10451;DHT22;5273;51.290;6.918;2022-12-29T16:04:50;10.10;99.10
10451;DHT22;5273;51.290;6.918;2022-12-29T16:07:27;10.10;98.80
10451;DHT22;5273;51.290;6.918;2022-12-29T16:09:55;10.00;99.10
10451;DHT22;5273;51.290;6.918;2022-12-29T16:12:24;10.00;99.10
10451;DHT22;5273;51.290;6.918;2022-12-29T16:14:54;10.10;99.20
10451;DHT22;5273;51.290;6.918;2022-12-29T16:17:24;10.20;99.30
10451;DHT22;5273;51.290;6.918;2022-12-29T16:19:54;10.10;99.20